No.16 Zen Maru — JJ3834 — position and weather

sailwx.info

Track history (hours):
 
Tides and Currents Weather Stations Pressure Air Temp Water Temp Dewpoint Dewpoint Depression Visibility Wind Speed Wind Dir Waves Ship Positions

No.16 Zen Maru

Last reported at 2018-Jun-24 06:51 UTC. Time now 2018-Jun-25 00:42 UTC.
Position N 34°04' E 134°59'.

Length 70 m.

Type: Ship. MMSI: 431300421.

Date/timePositionNaut miles runAvg speedWind from/ knotsBaromVisibWave heightAir tempDewpointWater temp
2018-Jun-24 06:51N 34°04' E 134°59'4 9.7
2018-Jun-24 06:27N 34°08' E 134°59'810.9
2018-Jun-24 05:45N 34°15' E 134°58'210.2
2018-Jun-24 05:30N 34°18' E 134°58'510.4
2018-Jun-24 05:00N 34°23' E 134°59'710.9
2018-Jun-24 04:20N 34°30' E 135°01'410.6
2018-Jun-24 04:00N 34°34' E 135°03'  
2018-Jun-18 12:02N 34°38' E 134°56'511.9
2018-Jun-18 11:35N 34°37' E 135°03'2 9.7
2018-Jun-18 11:24N 34°36' E 135°04'410.9
2018-Jun-18 10:59N 34°31' E 135°04'612.6
2018-Jun-18 10:30N 34°25' E 135°02'612.4
2018-Jun-18 10:00N 34°19' E 134°60'610.9
2018-Jun-18 09:30N 34°14' E 134°60'611.0
2018-Jun-18 09:00N 34°08' E 135°00'612.1
2018-Jun-18 08:30N 34°02' E 135°01'6 0.3
2018-Jun-17 08:18N 34°08' E 134°59'513.0
2018-Jun-17 07:56N 34°13' E 134°58'613.1
2018-Jun-17 07:30N 34°19' E 134°58'611.4
2018-Jun-17 07:00N 34°24' E 134°60'611.2
2018-Jun-17 06:30N 34°30' E 135°01'  
Track history (hours):
 
Tides and Currents Weather Stations Pressure Air Temp Water Temp Dewpoint Dewpoint Depression Visibility Wind Speed Wind Dir Waves Ship Positions

No.16 Zen Maru

Last reported at 2018-Jun-24 06:51 UTC. Time now 2018-Jun-25 00:42 UTC.
Position N 34°04' E 134°59'.

Length 70 m.

Type: Ship. MMSI: 431300421.

Date/timePositionNaut miles runAvg speedWind from/ knotsBaromVisibWave heightAir tempDewpointWater temp
2018-Jun-24 06:51N 34°04' E 134°59'4 9.7
2018-Jun-24 06:27N 34°08' E 134°59'810.9
2018-Jun-24 05:45N 34°15' E 134°58'210.2
2018-Jun-24 05:30N 34°18' E 134°58'510.4
2018-Jun-24 05:00N 34°23' E 134°59'710.9
2018-Jun-24 04:20N 34°30' E 135°01'410.6
2018-Jun-24 04:00N 34°34' E 135°03'  
2018-Jun-18 12:02N 34°38' E 134°56'511.9
2018-Jun-18 11:35N 34°37' E 135°03'2 9.7
2018-Jun-18 11:24N 34°36' E 135°04'410.9
2018-Jun-18 10:59N 34°31' E 135°04'612.6
2018-Jun-18 10:30N 34°25' E 135°02'612.4
2018-Jun-18 10:00N 34°19' E 134°60'610.9
2018-Jun-18 09:30N 34°14' E 134°60'611.0
2018-Jun-18 09:00N 34°08' E 135°00'612.1
2018-Jun-18 08:30N 34°02' E 135°01'6 0.3
2018-Jun-17 08:18N 34°08' E 134°59'513.0
2018-Jun-17 07:56N 34°13' E 134°58'613.1
2018-Jun-17 07:30N 34°19' E 134°58'611.4
2018-Jun-17 07:00N 34°24' E 134°60'611.2
2018-Jun-17 06:30N 34°30' E 135°01'  

Dump ship's entire track history